createdAt,value
2023-01-13T00:02:08.564Z,13.36
2023-01-13T00:07:04.784Z,22.66
2023-01-13T00:12:01.060Z,14.719999999999999
2023-01-13T00:16:57.304Z,16.04
2023-01-13T00:21:54.560Z,15.76
2023-01-13T00:26:51.984Z,12.1
2023-01-13T00:31:49.103Z,13.02
2023-01-13T00:36:46.365Z,11.4
2023-01-13T00:41:43.605Z,11.64
2023-01-13T00:46:40.913Z,12.62
2023-01-13T00:51:38.094Z,18.64
2023-01-13T00:56:40.081Z,23.72
2023-01-13T01:01:36.773Z,17.3
2023-01-13T01:06:36.870Z,9.919999999999998
2023-01-13T01:11:34.151Z,9.860000000000001
2023-01-13T01:16:30.473Z,11.22
2023-01-13T01:21:30.612Z,11.76
2023-01-13T01:26:27.892Z,11.4
2023-01-13T01:31:25.163Z,12.28
2023-01-13T01:36:22.406Z,13.279999999999998
2023-01-13T01:41:19.649Z,10.579999999999998
2023-01-13T01:46:15.975Z,11.36
2023-01-13T01:51:12.243Z,11.78
2023-01-13T01:56:10.437Z,10.46
2023-01-13T02:01:06.888Z,12.4
2023-01-13T02:06:02.972Z,9.239999999999998
2023-01-13T02:11:00.216Z,11.3
2023-01-13T02:16:06.471Z,11.780000000000001
2023-01-13T02:21:17.684Z,15.180000000000001
2023-01-13T02:26:29.902Z,15.12
2023-01-13T02:31:32.193Z,14.14
2023-01-13T02:36:37.394Z,15.160000000000002
2023-01-13T02:41:38.609Z,11.84
2023-01-13T02:46:43.861Z,16.78
2023-01-13T02:51:43.129Z,18.639999999999997
2023-01-13T02:56:41.365Z,16.94
2023-01-13T03:01:36.716Z,22.28
2023-01-13T03:06:43.900Z,19.58
2023-01-13T03:11:46.152Z,20.759999999999998
2023-01-13T03:16:53.398Z,26.02
2023-01-13T03:21:54.599Z,21.64
2023-01-13T03:27:00.860Z,22.94
2023-01-13T03:32:03.103Z,18.98
2023-01-13T03:37:02.321Z,16.06
2023-01-13T03:42:01.565Z,17.86
2023-01-13T03:47:04.810Z,16.139999999999997
2023-01-13T03:52:05.095Z,19.6
2023-01-13T03:57:06.337Z,18.98
2023-01-13T04:02:07.736Z,14.64
2023-01-13T04:07:12.823Z,24.06
2023-01-13T04:12:14.061Z,20.520000000000003
2023-01-13T04:17:10.303Z,17.259999999999998
2023-01-13T04:22:06.589Z,21.240000000000002
2023-01-13T04:27:02.858Z,19.3
2023-01-13T04:31:59.100Z,21.9
2023-01-13T04:36:55.362Z,20.32
2023-01-13T04:41:50.638Z,22.139999999999997
2023-01-13T04:46:46.892Z,17.880000000000003
2023-01-13T04:51:42.132Z,19.160000000000004
2023-01-13T04:56:37.402Z,17.44
2023-01-13T05:01:33.876Z,19.22
2023-01-13T05:06:29.937Z,14.64
2023-01-13T05:11:26.175Z,16.160000000000004
2023-01-13T05:16:22.511Z,16.360000000000003
2023-01-13T05:21:18.704Z,12.919999999999998
2023-01-13T05:26:13.957Z,18.34
2023-01-13T05:31:10.217Z,14.919999999999998
2023-01-13T05:36:06.468Z,14.24
2023-01-13T05:41:01.728Z,16.54
2023-01-13T05:45:59.007Z,14.24
2023-01-13T05:50:54.273Z,17.339999999999996
2023-01-13T05:55:49.590Z,17.9
2023-01-13T06:00:45.781Z,16.259999999999998
2023-01-13T06:05:42.064Z,21.6
2023-01-13T06:10:39.284Z,19.400000000000002
2023-01-13T06:15:35.578Z,22.640000000000004
2023-01-13T06:20:32.862Z,23.92
2023-01-13T06:25:34.065Z,19.72
2023-01-13T06:30:32.373Z,12.64
2023-01-13T06:40:37.789Z,27.339999999999996
2023-01-13T06:45:33.083Z,32.36
2023-01-13T06:50:29.357Z,18.22
2023-01-13T06:55:25.571Z,21.68
2023-01-13T07:00:22.870Z,19.32
2023-01-13T07:05:19.093Z,23.76
2023-01-13T07:10:15.361Z,18.240000000000002
2023-01-13T07:15:11.622Z,14.86
2023-01-13T07:20:07.894Z,15.440000000000001
2023-01-13T07:25:04.170Z,12.319999999999999
2023-01-13T07:30:00.412Z,18.4
2023-01-13T07:34:55.687Z,21.54
2023-01-13T07:39:51.942Z,21.54
2023-01-13T07:44:48.212Z,16.36
2023-01-13T07:49:43.467Z,17.1
2023-01-13T07:54:41.080Z,12.940000000000001
2023-01-13T07:59:37.060Z,15.74
2023-01-13T08:04:33.223Z,21.259999999999998
2023-01-13T08:09:28.499Z,14.900000000000002
2023-01-13T08:14:26.739Z,17.2
2023-01-13T08:19:23.013Z,16.54
2023-01-13T08:24:20.241Z,15.9
2023-01-13T08:29:16.512Z,13.639999999999997
2023-01-13T08:34:12.751Z,13.459999999999999
2023-01-13T08:39:09.221Z,10.8
2023-01-13T08:44:05.265Z,12.72
2023-01-13T08:49:01.565Z,12.979999999999999
2023-01-13T08:53:56.843Z,12.559999999999999
2023-01-13T08:58:53.075Z,24.9
2023-01-13T09:03:49.875Z,17.919999999999998
2023-01-13T09:08:45.621Z,14.720000000000002
2023-01-13T09:13:43.892Z,10.760000000000002
2023-01-13T09:18:40.085Z,11.059999999999999
2023-01-13T09:23:36.349Z,12.28
2023-01-13T09:28:32.607Z,15.219999999999999
2023-01-13T09:33:28.900Z,20.18
2023-01-13T09:38:25.176Z,15.560000000000002
2023-01-13T09:43:28.870Z,13.879999999999999
2023-01-13T09:48:29.828Z,13.16
2023-01-13T09:53:28.908Z,15.760000000000002
2023-01-13T09:58:25.168Z,20.839999999999996
2023-01-13T10:08:37.640Z,24.900000000000002
2023-01-13T10:13:38.917Z,15.8
2023-01-13T10:18:44.080Z,18.02
2023-01-13T10:22:46.607Z,21.32
2023-01-13T10:27:48.738Z,27.520000000000003
2023-01-13T10:32:47.008Z,13.620000000000001
2023-01-13T10:37:53.274Z,18.18
2023-01-13T10:42:55.514Z,14.3
2023-01-13T10:47:58.737Z,28.1
2023-01-13T10:52:58.964Z,28.6
2023-01-13T10:57:56.249Z,25.6
2023-01-13T11:03:09.438Z,24.2
2023-01-13T11:08:12.790Z,17.900000000000002
2023-01-13T11:13:15.963Z,20.18
2023-01-13T11:18:18.164Z,13.959999999999999
2023-01-13T11:23:18.542Z,20.04
2023-01-13T11:28:20.706Z,22.58
2023-01-13T11:33:28.915Z,17.619999999999997
2023-01-13T11:38:31.157Z,16.04
2023-01-13T11:43:33.389Z,23.78
2023-01-13T11:48:32.680Z,18.38
2023-01-13T11:53:43.915Z,29.18
2023-01-13T11:59:00.067Z,20.999999999999996
2023-01-13T12:04:05.308Z,19.96
2023-01-13T12:09:15.515Z,27.54
2023-01-13T12:14:19.807Z,36.17999999999999
2023-01-13T12:19:26.981Z,25
2023-01-13T12:24:33.259Z,25.26
2023-01-13T12:29:34.581Z,29.52
2023-01-13T12:34:41.767Z,25.259999999999998
2023-01-13T12:39:47.982Z,29.9
2023-01-13T12:44:54.349Z,34.11999999999999
2023-01-13T12:49:53.424Z,24.959999999999997
2023-01-13T12:55:00.704Z,28.2
2023-01-13T13:00:14.897Z,26.04
2023-01-13T13:05:25.163Z,21.14
2023-01-13T13:10:28.347Z,17.479999999999997
2023-01-13T13:15:32.602Z,27.96
2023-01-13T13:20:38.850Z,24.04
2023-01-13T13:25:49.100Z,21.22
2023-01-13T13:30:54.342Z,24.419999999999998
2023-01-13T13:36:04.504Z,23.640000000000004
2023-01-13T13:41:09.776Z,33.89999999999999
2023-01-13T13:46:11.068Z,24.059999999999995
2023-01-13T13:51:13.259Z,21.54
2023-01-13T13:56:16.180Z,21.419999999999998
2023-01-13T14:01:20.918Z,14.8
2023-01-13T14:06:21.957Z,21.479999999999997
2023-01-13T14:11:23.219Z,21.18
2023-01-13T14:16:20.455Z,20.9
2023-01-13T14:21:23.685Z,25.16
2023-01-13T14:26:23.922Z,26.02
2023-01-13T14:31:20.209Z,23.119999999999997
2023-01-13T14:36:30.454Z,38.480000000000004
2023-01-13T14:41:27.627Z,34.67999999999999
2023-01-13T14:46:31.938Z,29.419999999999998
2023-01-13T14:51:30.116Z,23.3
2023-01-13T14:56:37.369Z,28
2023-01-13T15:01:42.759Z,29.82
2023-01-13T15:06:45.854Z,17.439999999999998
2023-01-13T15:11:47.071Z,25.360000000000003
2023-01-13T15:16:46.355Z,38.339999999999996
2023-01-13T15:21:42.598Z,29.68
2023-01-13T15:33:01.949Z,39.059999999999995
2023-01-13T15:37:58.215Z,38.36
2023-01-13T15:42:54.432Z,35.02
2023-01-13T15:47:51.686Z,56.64
2023-01-13T15:52:54.899Z,54.2
2023-01-13T15:57:56.350Z,35.2
2023-01-13T16:02:52.520Z,56.260000000000005
2023-01-13T16:07:50.690Z,40.58
2023-01-13T16:12:55.939Z,36.7
2023-01-13T16:17:55.205Z,38.379999999999995
2023-01-13T16:22:52.486Z,44.78
2023-01-13T16:27:54.712Z,51.44
2023-01-13T16:32:50.989Z,42.24
2023-01-13T16:37:51.246Z,38.839999999999996
2023-01-13T16:42:51.890Z,41.22
2023-01-13T16:47:48.822Z,53.82000000000001
2023-01-13T16:52:45.071Z,47.660000000000004
2023-01-13T16:57:43.310Z,37.14
2023-01-13T17:02:42.507Z,41.64
2023-01-13T17:07:39.809Z,42.379999999999995
2023-01-13T17:12:36.005Z,69.28
2023-01-13T17:17:32.292Z,56.279999999999994
2023-01-13T17:22:28.583Z,54.2
2023-01-13T17:27:25.807Z,51.739999999999995
2023-01-13T17:32:26.100Z,49.459999999999994
2023-01-13T17:37:22.372Z,43.92
2023-01-13T17:42:19.657Z,48.56
2023-01-13T17:47:16.524Z,56.9
2023-01-13T17:52:13.118Z,98.19999999999999
2023-01-13T17:57:09.334Z,95.52
2023-01-13T18:02:06.931Z,76.54
2023-01-13T18:07:04.726Z,71.34
2023-01-13T18:12:01.113Z,88.78
2023-01-13T18:17:02.464Z,92.1
2023-01-13T18:21:58.635Z,84.32000000000001
2023-01-13T18:26:54.995Z,76.02000000000001
2023-01-13T18:31:51.173Z,67.5
2023-01-13T18:36:49.376Z,66.17999999999999
2023-01-13T18:41:45.653Z,75.04
2023-01-13T18:46:41.964Z,85.85999999999999
2023-01-13T18:51:38.333Z,82.4
2023-01-13T18:56:34.448Z,78.3
2023-01-13T19:01:32.815Z,62.220000000000006
2023-01-13T19:06:33.758Z,56.4
2023-01-13T19:11:34.246Z,48.82000000000001
2023-01-13T19:16:36.522Z,48.059999999999995
2023-01-13T19:21:32.762Z,52.48
2023-01-13T19:26:29.970Z,47.94
2023-01-13T19:31:31.268Z,45.94
2023-01-13T19:36:27.452Z,46.42
2023-01-13T19:41:24.715Z,51.36
2023-01-13T19:46:22.215Z,48.34
2023-01-13T19:51:19.258Z,45.6
2023-01-13T19:56:16.529Z,44.08
2023-01-13T20:01:12.830Z,49.660000000000004
2023-01-13T20:06:09.037Z,44.28
2023-01-13T20:11:05.271Z,50.660000000000004
2023-01-13T20:16:04.508Z,49.58
2023-01-13T20:21:05.795Z,41.32000000000001
2023-01-13T20:26:02.048Z,38.18000000000001
2023-01-13T20:30:59.571Z,39.86
2023-01-13T20:35:56.603Z,40.559999999999995
2023-01-13T20:40:57.796Z,51.4
2023-01-13T20:45:55.081Z,67.4
2023-01-13T20:50:52.334Z,44.71999999999999
2023-01-13T21:00:59.968Z,48.54
2023-01-13T21:05:57.092Z,58.98
2023-01-13T21:10:58.324Z,55.14
2023-01-13T21:15:54.558Z,47.6
2023-01-13T21:20:50.838Z,44.720000000000006
2023-01-13T21:25:51.096Z,38.7
2023-01-13T21:30:47.361Z,31.74
2023-01-13T21:35:43.644Z,35.06
2023-01-13T21:40:40.856Z,30.839999999999996
2023-01-13T21:45:38.204Z,33.339999999999996
2023-01-13T21:50:41.389Z,31.919999999999998
2023-01-13T21:55:37.617Z,33.4
2023-01-13T22:00:33.899Z,36.54
2023-01-13T22:05:30.158Z,35.279999999999994
2023-01-13T22:10:28.403Z,30.479999999999997
2023-01-13T22:15:24.941Z,49.980000000000004
2023-01-13T22:20:20.928Z,71.2
2023-01-13T22:25:18.165Z,97.84
2023-01-13T22:30:15.444Z,87.25999999999999
2023-01-13T22:35:12.665Z,86.84
2023-01-13T22:40:09.986Z,82.1
2023-01-13T22:45:06.213Z,88.66
2023-01-13T22:50:02.554Z,100.33999999999999
2023-01-13T22:54:58.707Z,114.38
2023-01-13T22:59:54.998Z,99.78
2023-01-13T23:04:51.352Z,77
2023-01-13T23:09:47.511Z,61.54
2023-01-13T23:14:43.757Z,50.580000000000005
2023-01-13T23:19:41.042Z,41.31999999999999
2023-01-13T23:24:37.286Z,29.020000000000003
2023-01-13T23:29:35.522Z,35.14
2023-01-13T23:34:31.776Z,31.02
2023-01-13T23:39:30.225Z,27.72
2023-01-13T23:44:31.290Z,29.740000000000002
2023-01-13T23:49:27.543Z,39.92
2023-01-13T23:54:23.803Z,37.260000000000005
2023-01-13T23:59:20.103Z,36.56
